Chicago, IL

11:57 PM CDT on October 21, 2014 (GMT -0500)
Chicago Executive | Change Station
CLOSE
Current Station
Airport
Location: Chicago Executive,
Elevation: 646 ft
Nearby Weather Stations

Elev 646 ft 42.12 °N, 87.90 °W | Updated 5 minutes ago

Overcast
Overcast
50 °F
Feels Like 50 °F
N
4
Wind Variable Wind from ENE

Today
High -- | Low -- °F
--% Chance of Precip.
Yesterday
High -- | Low -- °F
Precip. -- in
7:09 AM 5:59 PM
Waning Crescent, 3% visible
Pressure 30.27 in
Visibility 10.0 miles
Clouds Overcast 3000 ft
Dew Point 37 °F
Humidity 61%
Rainfall 0.00 in
Snow Depth Not available.
UV 0 out of 12
Pollen 1.60 out of 12
Ozone Good
PM2.5 Good
Flu Activity No Activity
METAR KPWK 220452Z AUTO 07003KT 10SM OVC030 10/03 A3026 RMK AO2 SLP249 T01000028

More Conditions Fewer Conditions

Pressure 30.27 in
Visibility 10.0 miles
Clouds Overcast 3000 ft
Dew Point 37 °F
Humidity 61%
Rainfall 0.00 in
Snow Depth Not available.
UV 0 out of 12
Pollen 1.60 out of 12
Ozone Good
PM2.5 Good
Flu Activity No Activity
METAR KPWK 220452Z AUTO 07003KT 10SM OVC030 10/03 A3026 RMK AO2 SLP249 T01000028

More Conditions Fewer Conditions

10-Day Weather Forecast

Almanac

Astronomy

Oct. 21, 2014 Rise Set
Actual Time 7:09 AM CDT 5:59 PM CDT
Civil Twilight 6:41 AM CDT 6:28 PM CDT
Nautical Twilight 6:08 AM CDT 7:00 PM CDT
Astronomical Twilight 5:36 AM CDT 7:32 PM CDT
Moon 4:51 AM CDT (10/21) 4:55 PM CDT (10/21)
Length of Visible Light 11h 46m
Length of Day
10h 50m
Tomorrow will be 2m 39s shorter.
Waning Crescent, 3% of the Moon is Illuminated
Oct 22
Waning Crescent
Oct 23
New
Oct 30
First Quarter
Nov 6
Full
Nov 14
Last Quarter

Yesterday's Extremes

State Highs State Lows

Community

WunderPhotos

Upload Photos

1,763,882 photos uploaded!

Nearby

Air Quality

  Air Quality AQ Index Pollutant
Yesterday Good
PM2.5
Yesterday Good
OZONE
Current Good
PM2.5
Current Good
OZONE
Tuesday Good
PM2.5
Wednesday Good
PM2.5
Thursday Moderate
PM2.5
Friday Good
PM2.5
Saturday Moderate
PM2.5
Sunday Moderate
PM2.5

Snow Depth

Station Depth Elevation
No new snow has been reported.

Earthquake Activity

City Distance Mag. Time & Date
No recent earthquake activity has been reported nearby.
Minimum magnitude displayed is 2.5.

Coastal Water Temperatures

Place Temperature
No Stations Reporting

Nearby Weather Stations